Airfield :
LOGIN :

Register | Disclaimer

   EN    FR    IT 

 










Legend :    VFR   Marginal VFR   IFR   Intensive IFR   Very Intensive IFR
Visi :
Ceiling :
>= 8 km
>= 3000ft
5 to 8 km
1000 to 3000 ft
1500m to 5 km
500 to 1000 ft
800 to 1500m
200 to 500 ft
< 800m
< 200 ft
Symbols :   Thunderstorms  Fog  Heavy snow  Heavy precipitations  Wind > 20 kt
SIGMETs :     Misc.  Thunderstorms  Icing  Turbulence  Mountain Waves  Volcanic Ashes







- Airport Elevation : 274 ft
- IATA code : PUY


LDPL - Pula

CURRENT METAR :
  • 231330Z 06009KT 040V100 CAVOK 13/01 Q1023 NOSIG

EXPIRED METARs :
  • 231300Z 09006KT 050V120 CAVOK 13/02 Q1023 NOSIG
  • 231230Z 11006KT 080V160 CAVOK 13/02 Q1023 NOSIG
  • 231200Z 08009KT CAVOK 13/02 Q1023 NOSIG
  • 231130Z 05008KT 020V090 CAVOK 13/02 Q1023 NOSIG
  • 231100Z 01005KT 330V070 CAVOK 12/02 Q1022 NOSIG
  • 231030Z 36006KT 320V030 CAVOK 12/03 Q1022 NOSIG

TAF TAF LDPL
Valid from the 23 at 12:00 until the 24 at 12:00 UTC


231125Z 2312/2412 06006KT CAVOK TX13/2313Z TN01/2405Z
BECMG 2410/2412 30007KT
No reported NOTAMs for that airfield.



MET'MAP, your aeronautical weather chart ! - Copyright ORBIFLY December 2007 - Disclaimer

ORBIFLY MET'MAP TEAM :

Programming & Development : Alexandra Zaïnal
Concept & Development : Baudouin d'Aumeries
Co-Development & Prog : Marc-Olivier Méhu
Technical & hardware support : Manuel Goepfert

Contact : metmap@orbifly.com




SOURCES & CREDITS :

   NOAA